Airfield :
LOGIN :

Register | Disclaimer

   EN    FR    IT 

 










Legend :    VFR   Marginal VFR   IFR   Intensive IFR   Very Intensive IFR
Visi :
Ceiling :
>= 8 km
>= 3000ft
5 to 8 km
1000 to 3000 ft
1500m to 5 km
500 to 1000 ft
800 to 1500m
200 to 500 ft
< 800m
< 200 ft
Symbols :   Thunderstorms  Fog  Heavy snow  Heavy precipitations  Wind > 20 kt
SIGMETs :     Misc.  Thunderstorms  Icing  Turbulence  Mountain Waves  Volcanic Ashes







- Airport Elevation : 1504 ft
- IATA code : PNA


LEPP - Noain Pamplona

CURRENT METAR :
  • 111930Z VRB01KT CAVOK 05/03 Q1021

EXPIRED METARs :
  • 111900Z VRB02KT CAVOK 05/03 Q1020
  • 111830Z 12002KT CAVOK 05/03 Q1020
  • 111800Z 19003KT 150V230 CAVOK 05/03 Q1020
  • 111730Z 17002KT CAVOK 07/04 Q1020
  • 111700Z VRB02KT CAVOK 07/04 Q1020

TAF TAF LEPP
Valid from the 11 at 15:00 until the 12 at 15:00 UTC


111400Z 1115/1215 VRB05KT 9999 FEW030 TX11/1115Z TN04/1206Z
PROB40
TEMPO 1200/1209 3000 BR BKN010
No reported NOTAMs for that airfield.



MET'MAP, your aeronautical weather chart ! - Copyright ORBIFLY December 2007 - Disclaimer

ORBIFLY MET'MAP TEAM :

Programming & Development : Alexandra Zaïnal
Concept & Development : Baudouin d'Aumeries
Co-Development & Prog : Marc-Olivier Méhu
Technical & hardware support : Manuel Goepfert

Contact : metmap@orbifly.com




SOURCES & CREDITS :

   NOAA